Terminal Aerodrome Forecast
Issued by NWS Albuquerque, NM

Home | Current Version | Previous Version | Text Only | Print | Product List | Glossary On
Versions: 1 2 3 4 5 6 7 8 9 10 11 12 13 14
000
FTUS45 KABQ 230500
TAFABQ
TAF
KABQ 230522Z 2306/2406 15005KT P6SM SKC
     FM232000 26007KT P6SM FEW200
     FM240200 VRB04KT P6SM FEW200=

USA.gov is the U.S. government's official web portal to all federal, state and local government web resources and services.